Dillon, Illinois
Current Conditions -  °F | °C
As of 1:54 AM on Thursday 27 Nov 2014 (Local Time) from KPIA Reporting Station
Broken Clouds Broken Clouds  
Wind Chill: -8°   Ceiling: 10000
Heat Index: -4°   Visibility: 7mi
Dew Point: -8°   Wind: 6mph
Humidity: 75%   Direction: 320°NW
Pressure: 30.29"   Gusts: NA
Location:  40.4817°N, 89.4923°W
Report Text: KPIA 270754Z 32005KT 7SM SCT075 BKN100 M04/M08 A3029 RMK AO2 SLP267 T10441083
Loading
Personal Weather Stations






























Interactive Weather Map New forecast layout! Learn more

10-Day Weather Forecast

Advertisements
Track Severe Weather on mobile